createdAt,value
2023-01-27T00:00:35.834Z,13.50
2023-01-27T00:05:38.702Z,13.87
2023-01-27T00:10:41.566Z,13.47
2023-01-27T00:15:45.684Z,14.40
2023-01-27T00:21:06.299Z,13.43
2023-01-27T00:26:10.965Z,14.00
2023-01-27T00:31:35.376Z,11.80
2023-01-27T00:36:39.753Z,13.73
2023-01-27T00:41:42.767Z,12.77
2023-01-27T00:46:47.092Z,12.30
2023-01-27T00:51:50.256Z,13.57
2023-01-27T00:56:53.165Z,12.80
2023-01-27T01:01:57.535Z,12.87
2023-01-27T01:07:00.412Z,13.80
2023-01-27T01:12:03.222Z,13.83
2023-01-27T01:17:07.562Z,13.03
2023-01-27T01:22:10.542Z,14.00
2023-01-27T01:27:14.080Z,12.63
2023-01-27T01:32:18.235Z,12.83
2023-01-27T01:37:21.129Z,13.53
2023-01-27T01:42:23.942Z,12.97
2023-01-27T01:47:28.084Z,14.40
2023-01-27T01:52:31.451Z,12.37
2023-01-27T01:57:37.529Z,12.00
2023-01-27T02:02:44.122Z,11.70
2023-01-27T02:07:52.604Z,12.07
2023-01-27T02:12:55.487Z,12.00
2023-01-27T02:18:01.172Z,11.57
2023-01-27T02:23:16.806Z,12.37
2023-01-27T02:28:21.012Z,12.23
2023-01-27T02:33:24.466Z,11.67
2023-01-27T02:38:30.389Z,12.63
2023-01-27T02:43:34.414Z,12.37
2023-01-27T02:48:37.251Z,13.63
2023-01-27T02:53:40.500Z,13.10
2023-01-27T02:58:44.595Z,15.20
2023-01-27T03:03:47.873Z,13.57
2023-01-27T03:08:50.679Z,15.03
2023-01-27T03:13:54.766Z,14.80
2023-01-27T03:18:57.725Z,13.33
2023-01-27T03:24:00.514Z,13.30
2023-01-27T03:29:18.646Z,13.53
2023-01-27T03:34:21.279Z,13.67
2023-01-27T03:39:41.656Z,12.67
2023-01-27T03:45:03.825Z,12.50
2023-01-27T03:50:11.248Z,12.23
2023-01-27T03:55:14.584Z,11.47
2023-01-27T04:00:21.116Z,12.30
2023-01-27T04:05:41.375Z,11.77
2023-01-27T04:11:04.497Z,12.70
2023-01-27T04:16:09.267Z,11.70
2023-01-27T04:21:13.329Z,12.77
2023-01-27T04:26:16.213Z,9.87
2023-01-27T04:31:20.362Z,11.60
2023-01-27T04:36:23.198Z,13.23
2023-01-27T04:41:25.941Z,11.10
2023-01-27T04:46:30.520Z,11.23
2023-01-27T04:51:34.112Z,12.13
2023-01-27T04:56:38.199Z,11.77
2023-01-27T05:01:42.346Z,11.63
2023-01-27T05:06:45.219Z,11.60
2023-01-27T05:11:48.555Z,12.57
2023-01-27T05:16:57.047Z,12.23
2023-01-27T05:22:21.114Z,11.63
2023-01-27T05:33:24.516Z,11.57
2023-01-27T05:38:27.212Z,10.33
2023-01-27T05:43:30.745Z,10.93
2023-01-27T05:48:35.565Z,11.00
2023-01-27T05:53:38.469Z,10.40
2023-01-27T05:58:41.421Z,10.33
2023-01-27T06:03:46.455Z,11.83
2023-01-27T06:08:49.859Z,10.87
2023-01-27T06:13:53.671Z,10.73
2023-01-27T06:18:58.594Z,11.60
2023-01-27T06:24:01.346Z,11.23
2023-01-27T06:29:04.147Z,11.77
2023-01-27T06:34:08.124Z,10.90
2023-01-27T06:39:11.180Z,11.63
2023-01-27T06:44:13.809Z,11.10
2023-01-27T06:49:17.772Z,11.43
2023-01-27T06:54:20.505Z,11.13
2023-01-27T06:59:23.139Z,10.00
2023-01-27T07:04:27.181Z,9.20
2023-01-27T07:09:32.160Z,9.80
2023-01-27T07:14:38.022Z,8.80
2023-01-27T07:19:42.013Z,9.50
2023-01-27T07:24:44.683Z,10.00
2023-01-27T07:29:47.342Z,9.27
2023-01-27T07:34:51.329Z,9.80
2023-01-27T07:39:54.008Z,9.23
2023-01-27T07:44:56.637Z,9.40
2023-01-27T07:50:00.626Z,10.20
2023-01-27T07:55:03.270Z,10.37
2023-01-27T08:00:06.855Z,10.80
2023-01-27T08:05:11.127Z,9.60
2023-01-27T08:10:14.261Z,9.47
2023-01-27T08:15:19.176Z,9.23
2023-01-27T08:20:23.495Z,10.73
2023-01-27T08:25:26.253Z,11.23
2023-01-27T08:30:28.983Z,11.70
2023-01-27T08:35:32.982Z,13.17
2023-01-27T08:40:35.655Z,11.50
2023-01-27T08:45:39.109Z,10.33
2023-01-27T08:50:44.024Z,10.90
2023-01-27T08:55:46.785Z,10.33
2023-01-27T09:00:49.760Z,10.37
2023-01-27T09:05:53.767Z,9.23
2023-01-27T09:10:56.576Z,10.30
2023-01-27T09:16:01.163Z,10.50
2023-01-27T09:21:06.305Z,8.73
2023-01-27T09:26:08.979Z,9.43
2023-01-27T09:31:11.837Z,8.67
2023-01-27T09:36:21.395Z,8.53
2023-01-27T09:42:00.488Z,9.17
2023-01-27T09:47:29.887Z,10.07
2023-01-27T09:52:48.812Z,10.80
2023-01-27T09:57:58.290Z,9.10
2023-01-27T10:03:27.001Z,10.77
2023-01-27T10:08:49.412Z,10.43
2023-01-27T10:14:08.978Z,11.53
2023-01-27T10:19:26.058Z,10.53
2023-01-27T10:24:41.731Z,11.73
2023-01-27T10:29:47.030Z,11.33
2023-01-27T10:34:56.294Z,11.87
2023-01-27T10:40:06.715Z,11.80
2023-01-27T10:45:25.264Z,12.63
2023-01-27T10:50:31.781Z,12.00
2023-01-27T10:55:41.990Z,12.33
2023-01-27T11:01:19.248Z,11.97
2023-01-27T11:06:15.453Z,12.03
2023-01-27T11:11:40.166Z,12.43
2023-01-27T11:16:47.403Z,11.63
2023-01-27T11:22:06.225Z,11.10
2023-01-27T11:27:19.800Z,10.97
2023-01-27T11:32:34.120Z,12.10
2023-01-27T11:37:39.608Z,11.60
2023-01-27T11:42:44.117Z,13.03
2023-01-27T11:47:49.811Z,13.20
2023-01-27T11:52:58.015Z,14.33
2023-01-27T11:58:12.219Z,14.73
2023-01-27T12:03:19.769Z,14.83
2023-01-27T12:08:39.840Z,12.93
2023-01-27T12:13:50.055Z,14.67
2023-01-27T12:18:56.976Z,16.10
2023-01-27T12:24:00.325Z,15.63
2023-01-27T12:29:07.796Z,14.53
2023-01-27T12:34:23.168Z,15.57
2023-01-27T12:39:32.305Z,15.87
2023-01-27T12:44:50.879Z,16.47
2023-01-27T12:50:13.798Z,16.17
2023-01-27T12:55:29.914Z,17.07
2023-01-27T13:00:34.845Z,16.67
2023-01-27T13:05:39.618Z,15.73
2023-01-27T13:10:51.795Z,16.33
2023-01-27T13:15:57.622Z,14.43
2023-01-27T13:21:08.348Z,16.90
2023-01-27T13:26:16.670Z,14.83
2023-01-27T13:31:30.647Z,13.63
2023-01-27T13:36:40.181Z,13.37
2023-01-27T13:41:49.606Z,13.47
2023-01-27T13:46:55.968Z,12.17
2023-01-27T13:51:58.897Z,12.50
2023-01-27T13:57:22.843Z,12.83
2023-01-27T14:02:43.513Z,12.97
2023-01-27T14:07:53.197Z,12.43
2023-01-27T14:13:16.132Z,12.97
2023-01-27T14:18:25.367Z,12.57
2023-01-27T14:23:45.659Z,11.83
2023-01-27T14:29:08.069Z,11.87
2023-01-27T14:34:26.335Z,11.80
2023-01-27T14:39:36.845Z,11.40
2023-01-27T14:45:06.720Z,10.80
2023-01-27T14:50:24.909Z,11.27
2023-01-27T14:55:37.919Z,11.20
2023-01-27T15:00:49.570Z,9.97
2023-01-27T15:05:58.974Z,10.63
2023-01-27T15:11:18.399Z,10.67
2023-01-27T15:16:48.548Z,10.20
2023-01-27T15:22:12.600Z,10.27
2023-01-27T15:27:15.548Z,10.83
2023-01-27T15:32:36.074Z,11.33
2023-01-27T15:37:57.580Z,11.83
2023-01-27T15:43:05.520Z,13.77
2023-01-27T15:48:12.855Z,13.07
2023-01-27T15:53:24.586Z,11.50
2023-01-27T15:58:34.510Z,11.77
2023-01-27T16:03:43.629Z,11.73
2023-01-27T16:08:52.116Z,11.80
2023-01-27T16:14:26.862Z,12.90
2023-01-27T16:19:33.655Z,13.00
2023-01-27T16:24:45.269Z,11.30
2023-01-27T16:29:53.147Z,11.27
2023-01-27T16:35:00.194Z,11.87
2023-01-27T16:40:09.092Z,10.00
2023-01-27T16:45:20.280Z,9.63
2023-01-27T16:50:34.888Z,10.00
2023-01-27T16:55:40.375Z,8.77
2023-01-27T17:00:44.728Z,8.67
2023-01-27T17:05:52.188Z,9.17
2023-01-27T17:10:58.917Z,9.83
2023-01-27T17:16:05.359Z,11.63
2023-01-27T17:21:08.851Z,12.40
2023-01-27T17:26:16.846Z,11.93
2023-01-27T17:31:24.646Z,11.07
2023-01-27T17:36:27.674Z,12.53
2023-01-27T17:41:36.067Z,13.87
2023-01-27T17:46:39.098Z,12.07
2023-01-27T17:51:45.440Z,11.60
2023-01-27T17:56:51.847Z,13.43
2023-01-27T18:01:56.367Z,12.57
2023-01-27T18:06:59.065Z,11.93
2023-01-27T18:12:07.196Z,12.97
2023-01-27T18:17:22.974Z,13.43
2023-01-27T18:22:27.024Z,14.43
2023-01-27T18:27:34.353Z,13.40
2023-01-27T18:32:40.205Z,13.77
2023-01-27T18:37:53.487Z,14.10
2023-01-27T18:42:58.631Z,14.70
2023-01-27T18:48:01.815Z,15.03
2023-01-27T18:53:13.680Z,15.37
2023-01-27T18:58:17.967Z,15.70
2023-01-27T19:03:23.717Z,17.13
2023-01-27T19:08:26.511Z,16.33
2023-01-27T19:13:30.463Z,17.40
2023-01-27T19:18:36.687Z,17.57
2023-01-27T19:23:44.215Z,17.00
2023-01-27T19:28:51.786Z,17.10
2023-01-27T19:33:56.654Z,19.33
2023-01-27T19:39:07.303Z,18.13
2023-01-27T19:44:11.323Z,18.40
2023-01-27T19:49:17.889Z,20.47
2023-01-27T19:54:20.637Z,19.63
2023-01-27T19:59:25.113Z,18.60
2023-01-27T20:04:27.804Z,20.30
2023-01-27T20:09:30.510Z,18.67
2023-01-27T20:14:34.505Z,20.03
2023-01-27T20:19:37.218Z,19.67
2023-01-27T20:24:39.916Z,21.00
2023-01-27T20:29:44.869Z,20.50
2023-01-27T20:34:47.562Z,20.10
2023-01-27T20:39:50.279Z,19.60
2023-01-27T20:44:54.282Z,20.33
2023-01-27T20:49:56.965Z,22.43
2023-01-27T20:54:59.590Z,22.10
2023-01-27T21:00:03.724Z,22.00
2023-01-27T21:05:07.255Z,21.13
2023-01-27T21:10:11.118Z,22.43
2023-01-27T21:15:16.837Z,20.97
2023-01-27T21:20:19.752Z,20.93
2023-01-27T21:25:22.408Z,19.67
2023-01-27T21:30:28.242Z,20.67
2023-01-27T22:04:11.885Z,17.17
2023-01-27T22:09:20.976Z,16.57
2023-01-27T22:14:23.910Z,15.73
2023-01-27T22:19:29.138Z,17.60
2023-01-27T22:24:31.841Z,16.50
2023-01-27T22:29:34.528Z,17.43
2023-01-27T22:34:38.511Z,17.33
2023-01-27T22:39:43.028Z,17.43
2023-01-27T22:44:49.407Z,17.50
2023-01-27T22:49:53.404Z,16.83
2023-01-27T22:54:56.144Z,16.47
2023-01-27T22:59:59.092Z,17.50
2023-01-27T23:05:03.248Z,18.43
2023-01-27T23:10:07.007Z,18.40
2023-01-27T23:15:10.561Z,18.30
2023-01-27T23:20:15.245Z,19.73
2023-01-27T23:25:18.077Z,20.27
2023-01-27T23:30:20.746Z,17.97
2023-01-27T23:35:24.877Z,17.63
2023-01-27T23:40:27.517Z,16.27
2023-01-27T23:45:30.190Z,15.83
2023-01-27T23:50:34.183Z,15.10
2023-01-27T23:55:36.832Z,15.20
